sensor_id;sensor_type;location;lat;lon;timestamp;P1;durP1;ratioP1;P2;durP2;ratioP2
6336;SDS011;3201;49.962;11.618;2022-10-31T00:02:01;2.27;;;2.07;;
6336;SDS011;3201;49.962;11.618;2022-10-31T00:04:27;2.30;;;1.70;;
6336;SDS011;3201;49.962;11.618;2022-10-31T00:06:52;2.20;;;1.80;;
6336;SDS011;3201;49.962;11.618;2022-10-31T00:09:17;3.40;;;2.10;;
6336;SDS011;3201;49.962;11.618;2022-10-31T00:11:43;2.00;;;1.90;;
6336;SDS011;3201;49.962;11.618;2022-10-31T00:14:08;1.93;;;1.80;;
6336;SDS011;3201;49.962;11.618;2022-10-31T00:16:34;1.80;;;1.63;;
6336;SDS011;3201;49.962;11.618;2022-10-31T00:19:00;3.03;;;1.87;;
6336;SDS011;3201;49.962;11.618;2022-10-31T00:21:27;2.43;;;1.90;;
6336;SDS011;3201;49.962;11.618;2022-10-31T00:23:52;1.70;;;1.60;;
6336;SDS011;3201;49.962;11.618;2022-10-31T00:26:18;1.73;;;1.63;;
6336;SDS011;3201;49.962;11.618;2022-10-31T00:28:44;2.30;;;1.90;;
6336;SDS011;3201;49.962;11.618;2022-10-31T00:31:09;1.60;;;1.50;;
6336;SDS011;3201;49.962;11.618;2022-10-31T00:33:37;2.40;;;1.87;;
6336;SDS011;3201;49.962;11.618;2022-10-31T00:36:04;2.43;;;1.80;;
6336;SDS011;3201;49.962;11.618;2022-10-31T00:38:30;2.13;;;1.77;;
6336;SDS011;3201;49.962;11.618;2022-10-31T00:40:55;3.00;;;1.97;;
6336;SDS011;3201;49.962;11.618;2022-10-31T00:43:21;2.40;;;2.20;;
6336;SDS011;3201;49.962;11.618;2022-10-31T00:45:46;3.33;;;2.13;;
6336;SDS011;3201;49.962;11.618;2022-10-31T00:48:12;2.00;;;1.80;;
6336;SDS011;3201;49.962;11.618;2022-10-31T00:50:37;4.93;;;2.17;;
6336;SDS011;3201;49.962;11.618;2022-10-31T00:53:03;1.80;;;1.70;;
6336;SDS011;3201;49.962;11.618;2022-10-31T00:55:28;3.43;;;2.60;;
6336;SDS011;3201;49.962;11.618;2022-10-31T00:57:54;2.63;;;2.40;;
6336;SDS011;3201;49.962;11.618;2022-10-31T01:00:19;3.00;;;2.30;;
6336;SDS011;3201;49.962;11.618;2022-10-31T01:02:46;1.70;;;1.60;;
6336;SDS011;3201;49.962;11.618;2022-10-31T01:05:12;5.60;;;2.57;;
6336;SDS011;3201;49.962;11.618;2022-10-31T01:07:38;2.70;;;2.23;;
6336;SDS011;3201;49.962;11.618;2022-10-31T01:10:05;2.00;;;1.80;;
6336;SDS011;3201;49.962;11.618;2022-10-31T01:12:40;2.40;;;2.20;;
6336;SDS011;3201;49.962;11.618;2022-10-31T01:15:09;1.60;;;1.50;;
6336;SDS011;3201;49.962;11.618;2022-10-31T01:17:35;2.20;;;2.00;;
6336;SDS011;3201;49.962;11.618;2022-10-31T01:20:01;2.27;;;2.07;;
6336;SDS011;3201;49.962;11.618;2022-10-31T01:22:26;2.17;;;1.87;;
6336;SDS011;3201;49.962;11.618;2022-10-31T01:24:52;2.20;;;2.00;;
6336;SDS011;3201;49.962;11.618;2022-10-31T01:27:17;2.43;;;2.23;;
6336;SDS011;3201;49.962;11.618;2022-10-31T01:29:42;2.97;;;2.20;;
6336;SDS011;3201;49.962;11.618;2022-10-31T01:32:09;2.70;;;1.70;;
6336;SDS011;3201;49.962;11.618;2022-10-31T01:34:34;2.77;;;1.97;;
6336;SDS011;3201;49.962;11.618;2022-10-31T01:37:00;1.87;;;1.73;;
6336;SDS011;3201;49.962;11.618;2022-10-31T01:39:25;2.27;;;1.90;;
6336;SDS011;3201;49.962;11.618;2022-10-31T01:41:51;5.90;;;1.97;;
6336;SDS011;3201;49.962;11.618;2022-10-31T01:49:45;2.20;;;2.03;;
6336;SDS011;3201;49.962;11.618;2022-10-31T01:52:14;1.83;;;1.73;;
6336;SDS011;3201;49.962;11.618;2022-10-31T01:54:45;2.90;;;1.77;;
6336;SDS011;3201;49.962;11.618;2022-10-31T01:57:16;3.10;;;2.30;;
6336;SDS011;3201;49.962;11.618;2022-10-31T01:59:44;2.03;;;1.80;;
6336;SDS011;3201;49.962;11.618;2022-10-31T02:02:12;2.60;;;2.27;;
6336;SDS011;3201;49.962;11.618;2022-10-31T02:04:38;3.23;;;1.87;;
6336;SDS011;3201;49.962;11.618;2022-10-31T02:07:07;2.03;;;1.80;;
6336;SDS011;3201;49.962;11.618;2022-10-31T02:09:41;2.33;;;2.00;;
6336;SDS011;3201;49.962;11.618;2022-10-31T02:12:08;2.53;;;1.97;;
6336;SDS011;3201;49.962;11.618;2022-10-31T02:14:34;2.80;;;1.90;;
6336;SDS011;3201;49.962;11.618;2022-10-31T02:17:00;4.30;;;2.10;;
6336;SDS011;3201;49.962;11.618;2022-10-31T02:20:27;1.93;;;1.77;;
6336;SDS011;3201;49.962;11.618;2022-10-31T02:26:07;2.30;;;2.10;;
6336;SDS011;3201;49.962;11.618;2022-10-31T02:31:25;2.90;;;2.20;;
6336;SDS011;3201;49.962;11.618;2022-10-31T02:33:41;2.23;;;2.00;;
6336;SDS011;3201;49.962;11.618;2022-10-31T02:41:47;2.17;;;1.93;;
6336;SDS011;3201;49.962;11.618;2022-10-31T02:49:18;4.30;;;2.20;;
6336;SDS011;3201;49.962;11.618;2022-10-31T02:51:49;3.43;;;2.30;;
6336;SDS011;3201;49.962;11.618;2022-10-31T02:54:17;1.80;;;1.70;;
6336;SDS011;3201;49.962;11.618;2022-10-31T02:56:44;3.57;;;1.80;;
6336;SDS011;3201;49.962;11.618;2022-10-31T02:59:10;2.60;;;2.40;;
6336;SDS011;3201;49.962;11.618;2022-10-31T03:14:52;2.20;;;1.80;;
6336;SDS011;3201;49.962;11.618;2022-10-31T03:17:25;2.80;;;2.00;;
6336;SDS011;3201;49.962;11.618;2022-10-31T03:19:53;4.83;;;2.20;;
6336;SDS011;3201;49.962;11.618;2022-10-31T03:22:24;2.47;;;2.07;;
6336;SDS011;3201;49.962;11.618;2022-10-31T03:24:51;3.00;;;2.00;;
6336;SDS011;3201;49.962;11.618;2022-10-31T03:27:18;1.77;;;1.67;;
6336;SDS011;3201;49.962;11.618;2022-10-31T03:29:47;2.63;;;2.43;;
6336;SDS011;3201;49.962;11.618;2022-10-31T03:32:16;2.90;;;1.70;;
6336;SDS011;3201;49.962;11.618;2022-10-31T03:34:43;1.63;;;1.53;;
6336;SDS011;3201;49.962;11.618;2022-10-31T03:37:10;4.03;;;1.70;;
6336;SDS011;3201;49.962;11.618;2022-10-31T03:39:38;2.00;;;1.77;;
6336;SDS011;3201;49.962;11.618;2022-10-31T03:42:06;2.47;;;2.07;;
6336;SDS011;3201;49.962;11.618;2022-10-31T03:44:34;2.50;;;1.60;;
6336;SDS011;3201;49.962;11.618;2022-10-31T03:47:01;2.37;;;1.87;;
6336;SDS011;3201;49.962;11.618;2022-10-31T03:49:27;2.30;;;1.80;;
6336;SDS011;3201;49.962;11.618;2022-10-31T03:51:57;2.90;;;1.73;;
6336;SDS011;3201;49.962;11.618;2022-10-31T03:54:44;4.30;;;1.77;;
6336;SDS011;3201;49.962;11.618;2022-10-31T03:57:19;2.23;;;1.77;;
6336;SDS011;3201;49.962;11.618;2022-10-31T03:59:51;2.03;;;1.83;;
6336;SDS011;3201;49.962;11.618;2022-10-31T04:02:22;1.93;;;1.73;;
6336;SDS011;3201;49.962;11.618;2022-10-31T04:04:51;2.43;;;1.67;;
6336;SDS011;3201;49.962;11.618;2022-10-31T04:07:17;2.57;;;2.37;;
6336;SDS011;3201;49.962;11.618;2022-10-31T04:09:44;2.60;;;2.20;;
6336;SDS011;3201;49.962;11.618;2022-10-31T04:12:11;3.20;;;2.50;;
6336;SDS011;3201;49.962;11.618;2022-10-31T04:14:40;2.40;;;2.20;;
6336;SDS011;3201;49.962;11.618;2022-10-31T04:17:07;2.23;;;1.87;;
6336;SDS011;3201;49.962;11.618;2022-10-31T04:19:37;2.40;;;2.07;;
6336;SDS011;3201;49.962;11.618;2022-10-31T04:22:02;1.80;;;1.70;;
6336;SDS011;3201;49.962;11.618;2022-10-31T04:24:27;2.40;;;1.93;;
6336;SDS011;3201;49.962;11.618;2022-10-31T04:26:53;2.03;;;1.83;;
6336;SDS011;3201;49.962;11.618;2022-10-31T04:29:18;1.93;;;1.80;;
6336;SDS011;3201;49.962;11.618;2022-10-31T04:31:43;6.27;;;1.80;;
6336;SDS011;3201;49.962;11.618;2022-10-31T04:34:09;2.70;;;2.50;;
6336;SDS011;3201;49.962;11.618;2022-10-31T04:36:34;1.83;;;1.57;;
6336;SDS011;3201;49.962;11.618;2022-10-31T04:39:00;3.53;;;1.60;;
6336;SDS011;3201;49.962;11.618;2022-10-31T04:41:25;2.20;;;1.83;;
6336;SDS011;3201;49.962;11.618;2022-10-31T04:43:50;2.10;;;1.90;;
6336;SDS011;3201;49.962;11.618;2022-10-31T04:46:16;2.10;;;1.90;;
6336;SDS011;3201;49.962;11.618;2022-10-31T04:48:41;2.33;;;2.00;;
6336;SDS011;3201;49.962;11.618;2022-10-31T04:51:06;1.93;;;1.83;;
6336;SDS011;3201;49.962;11.618;2022-10-31T04:53:32;6.90;;;2.00;;
6336;SDS011;3201;49.962;11.618;2022-10-31T04:55:58;3.03;;;2.23;;
6336;SDS011;3201;49.962;11.618;2022-10-31T04:58:24;1.63;;;1.53;;
6336;SDS011;3201;49.962;11.618;2022-10-31T05:00:51;2.40;;;2.17;;
6336;SDS011;3201;49.962;11.618;2022-10-31T05:03:18;1.87;;;1.77;;
6336;SDS011;3201;49.962;11.618;2022-10-31T05:05:43;2.23;;;2.00;;
6336;SDS011;3201;49.962;11.618;2022-10-31T05:08:09;2.03;;;1.90;;
6336;SDS011;3201;49.962;11.618;2022-10-31T05:10:34;3.57;;;2.00;;
6336;SDS011;3201;49.962;11.618;2022-10-31T05:13:00;2.30;;;2.10;;
6336;SDS011;3201;49.962;11.618;2022-10-31T05:15:27;3.93;;;2.10;;
6336;SDS011;3201;49.962;11.618;2022-10-31T05:17:53;3.27;;;1.80;;
6336;SDS011;3201;49.962;11.618;2022-10-31T05:20:20;3.37;;;1.80;;
6336;SDS011;3201;49.962;11.618;2022-10-31T05:22:47;3.13;;;1.87;;
6336;SDS011;3201;49.962;11.618;2022-10-31T05:25:14;2.50;;;2.00;;
6336;SDS011;3201;49.962;11.618;2022-10-31T05:27:41;2.20;;;2.00;;
6336;SDS011;3201;49.962;11.618;2022-10-31T05:30:08;2.10;;;1.70;;
6336;SDS011;3201;49.962;11.618;2022-10-31T05:32:43;2.10;;;1.83;;
6336;SDS011;3201;49.962;11.618;2022-10-31T05:35:11;2.43;;;1.90;;
6336;SDS011;3201;49.962;11.618;2022-10-31T05:37:38;1.93;;;1.73;;
6336;SDS011;3201;49.962;11.618;2022-10-31T05:40:04;2.20;;;2.00;;
6336;SDS011;3201;49.962;11.618;2022-10-31T05:42:32;1.60;;;1.50;;
6336;SDS011;3201;49.962;11.618;2022-10-31T05:44:57;2.53;;;2.10;;
6336;SDS011;3201;49.962;11.618;2022-10-31T05:47:23;2.83;;;2.03;;
6336;SDS011;3201;49.962;11.618;2022-10-31T05:49:48;2.43;;;2.23;;
6336;SDS011;3201;49.962;11.618;2022-10-31T05:52:14;2.37;;;2.03;;
6336;SDS011;3201;49.962;11.618;2022-10-31T05:54:39;4.07;;;2.50;;
6336;SDS011;3201;49.962;11.618;2022-10-31T05:57:05;2.17;;;1.97;;
6336;SDS011;3201;49.962;11.618;2022-10-31T05:59:30;2.07;;;1.87;;
6336;SDS011;3201;49.962;11.618;2022-10-31T06:01:55;1.97;;;1.80;;
6336;SDS011;3201;49.962;11.618;2022-10-31T06:04:21;2.57;;;2.37;;
6336;SDS011;3201;49.962;11.618;2022-10-31T06:06:46;2.50;;;2.30;;
6336;SDS011;3201;49.962;11.618;2022-10-31T06:09:11;3.60;;;1.87;;
6336;SDS011;3201;49.962;11.618;2022-10-31T06:11:37;2.10;;;1.90;;
6336;SDS011;3201;49.962;11.618;2022-10-31T06:14:02;2.40;;;2.10;;
6336;SDS011;3201;49.962;11.618;2022-10-31T06:16:28;2.37;;;2.17;;
6336;SDS011;3201;49.962;11.618;2022-10-31T06:18:54;2.13;;;1.93;;
6336;SDS011;3201;49.962;11.618;2022-10-31T06:21:19;3.67;;;2.07;;
6336;SDS011;3201;49.962;11.618;2022-10-31T06:23:44;2.30;;;1.97;;
6336;SDS011;3201;49.962;11.618;2022-10-31T06:26:10;2.43;;;1.80;;
6336;SDS011;3201;49.962;11.618;2022-10-31T06:28:35;2.03;;;1.73;;
6336;SDS011;3201;49.962;11.618;2022-10-31T06:31:00;2.30;;;2.10;;
6336;SDS011;3201;49.962;11.618;2022-10-31T06:33:26;2.47;;;2.27;;
6336;SDS011;3201;49.962;11.618;2022-10-31T06:35:51;3.03;;;2.10;;
6336;SDS011;3201;49.962;11.618;2022-10-31T06:38:16;2.30;;;2.10;;
6336;SDS011;3201;49.962;11.618;2022-10-31T06:40:42;2.07;;;1.87;;
6336;SDS011;3201;49.962;11.618;2022-10-31T06:43:07;1.67;;;1.57;;
6336;SDS011;3201;49.962;11.618;2022-10-31T06:45:32;2.23;;;1.47;;
6336;SDS011;3201;49.962;11.618;2022-10-31T06:47:58;2.03;;;1.83;;
6336;SDS011;3201;49.962;11.618;2022-10-31T06:50:24;2.13;;;1.80;;
6336;SDS011;3201;49.962;11.618;2022-10-31T06:52:51;2.43;;;2.23;;
6336;SDS011;3201;49.962;11.618;2022-10-31T06:55:17;2.67;;;2.07;;
6336;SDS011;3201;49.962;11.618;2022-10-31T06:57:48;1.87;;;1.70;;
6336;SDS011;3201;49.962;11.618;2022-10-31T07:00:14;1.83;;;1.73;;
6336;SDS011;3201;49.962;11.618;2022-10-31T07:02:40;2.00;;;1.80;;
6336;SDS011;3201;49.962;11.618;2022-10-31T07:05:05;2.13;;;1.93;;
6336;SDS011;3201;49.962;11.618;2022-10-31T07:07:31;1.83;;;1.70;;
6336;SDS011;3201;49.962;11.618;2022-10-31T07:09:56;2.30;;;2.10;;
6336;SDS011;3201;49.962;11.618;2022-10-31T07:12:21;1.63;;;1.53;;
6336;SDS011;3201;49.962;11.618;2022-10-31T07:14:47;2.67;;;1.43;;
6336;SDS011;3201;49.962;11.618;2022-10-31T07:17:12;2.17;;;1.67;;
6336;SDS011;3201;49.962;11.618;2022-10-31T07:19:38;1.93;;;1.77;;
6336;SDS011;3201;49.962;11.618;2022-10-31T07:22:03;2.20;;;1.90;;
6336;SDS011;3201;49.962;11.618;2022-10-31T07:24:28;1.70;;;1.47;;
6336;SDS011;3201;49.962;11.618;2022-10-31T07:26:55;1.80;;;1.70;;
6336;SDS011;3201;49.962;11.618;2022-10-31T07:29:20;1.90;;;1.70;;
6336;SDS011;3201;49.962;11.618;2022-10-31T07:31:46;2.00;;;1.90;;
6336;SDS011;3201;49.962;11.618;2022-10-31T07:34:11;2.80;;;2.07;;
6336;SDS011;3201;49.962;11.618;2022-10-31T07:36:37;1.87;;;1.77;;
6336;SDS011;3201;49.962;11.618;2022-10-31T07:39:02;2.40;;;2.20;;
6336;SDS011;3201;49.962;11.618;2022-10-31T07:41:28;2.60;;;1.73;;
6336;SDS011;3201;49.962;11.618;2022-10-31T07:43:53;2.33;;;1.83;;
6336;SDS011;3201;49.962;11.618;2022-10-31T07:46:18;2.23;;;1.80;;
6336;SDS011;3201;49.962;11.618;2022-10-31T07:48:44;2.37;;;2.10;;
6336;SDS011;3201;49.962;11.618;2022-10-31T07:51:09;2.80;;;2.30;;
6336;SDS011;3201;49.962;11.618;2022-10-31T07:53:34;1.83;;;1.73;;
6336;SDS011;3201;49.962;11.618;2022-10-31T07:56:00;2.50;;;1.70;;
6336;SDS011;3201;49.962;11.618;2022-10-31T07:58:25;3.60;;;2.20;;
6336;SDS011;3201;49.962;11.618;2022-10-31T08:00:51;1.80;;;1.67;;
6336;SDS011;3201;49.962;11.618;2022-10-31T08:03:17;2.43;;;1.73;;
6336;SDS011;3201;49.962;11.618;2022-10-31T08:05:43;2.30;;;1.90;;
6336;SDS011;3201;49.962;11.618;2022-10-31T08:08:11;2.20;;;2.00;;
6336;SDS011;3201;49.962;11.618;2022-10-31T08:10:37;2.53;;;2.10;;
6336;SDS011;3201;49.962;11.618;2022-10-31T08:13:04;2.50;;;2.30;;
6336;SDS011;3201;49.962;11.618;2022-10-31T08:15:31;3.13;;;2.57;;
6336;SDS011;3201;49.962;11.618;2022-10-31T08:17:59;2.30;;;2.00;;
6336;SDS011;3201;49.962;11.618;2022-10-31T08:20:24;3.80;;;2.70;;
6336;SDS011;3201;49.962;11.618;2022-10-31T08:22:53;2.90;;;2.20;;
6336;SDS011;3201;49.962;11.618;2022-10-31T08:25:20;2.40;;;1.97;;
6336;SDS011;3201;49.962;11.618;2022-10-31T08:27:48;3.13;;;2.17;;
6336;SDS011;3201;49.962;11.618;2022-10-31T08:30:15;2.17;;;1.97;;
6336;SDS011;3201;49.962;11.618;2022-10-31T08:32:41;2.47;;;1.90;;
6336;SDS011;3201;49.962;11.618;2022-10-31T08:35:06;2.50;;;2.20;;
6336;SDS011;3201;49.962;11.618;2022-10-31T08:37:32;2.20;;;1.40;;
6336;SDS011;3201;49.962;11.618;2022-10-31T08:39:57;11.23;;;2.10;;
6336;SDS011;3201;49.962;11.618;2022-10-31T08:42:22;1.83;;;1.70;;
6336;SDS011;3201;49.962;11.618;2022-10-31T08:44:48;2.83;;;2.40;;
6336;SDS011;3201;49.962;11.618;2022-10-31T08:47:13;2.43;;;2.23;;
6336;SDS011;3201;49.962;11.618;2022-10-31T08:49:38;3.10;;;1.90;;
6336;SDS011;3201;49.962;11.618;2022-10-31T08:52:04;1.93;;;1.63;;
6336;SDS011;3201;49.962;11.618;2022-10-31T08:54:29;2.67;;;1.93;;
6336;SDS011;3201;49.962;11.618;2022-10-31T08:56:55;2.27;;;1.83;;
6336;SDS011;3201;49.962;11.618;2022-10-31T08:59:21;3.87;;;1.90;;
6336;SDS011;3201;49.962;11.618;2022-10-31T09:01:46;2.07;;;1.87;;
6336;SDS011;3201;49.962;11.618;2022-10-31T09:04:12;2.40;;;2.20;;
6336;SDS011;3201;49.962;11.618;2022-10-31T09:06:37;2.60;;;2.40;;
6336;SDS011;3201;49.962;11.618;2022-10-31T09:09:02;2.00;;;1.80;;
6336;SDS011;3201;49.962;11.618;2022-10-31T09:11:29;2.80;;;2.23;;
6336;SDS011;3201;49.962;11.618;2022-10-31T09:13:55;5.03;;;1.67;;
6336;SDS011;3201;49.962;11.618;2022-10-31T09:16:20;2.50;;;1.80;;
6336;SDS011;3201;49.962;11.618;2022-10-31T09:18:46;2.63;;;2.20;;
6336;SDS011;3201;49.962;11.618;2022-10-31T09:21:11;2.30;;;2.10;;
6336;SDS011;3201;49.962;11.618;2022-10-31T09:23:36;2.50;;;1.87;;
6336;SDS011;3201;49.962;11.618;2022-10-31T09:26:02;1.90;;;1.80;;
6336;SDS011;3201;49.962;11.618;2022-10-31T09:28:27;2.77;;;2.13;;
6336;SDS011;3201;49.962;11.618;2022-10-31T09:30:53;2.13;;;1.70;;
6336;SDS011;3201;49.962;11.618;2022-10-31T09:33:19;2.57;;;2.30;;
6336;SDS011;3201;49.962;11.618;2022-10-31T09:35:45;2.30;;;2.10;;
6336;SDS011;3201;49.962;11.618;2022-10-31T09:38:18;3.43;;;2.00;;
6336;SDS011;3201;49.962;11.618;2022-10-31T09:40:46;2.30;;;2.10;;
6336;SDS011;3201;49.962;11.618;2022-10-31T09:43:15;4.30;;;2.23;;
6336;SDS011;3201;49.962;11.618;2022-10-31T09:50:54;3.67;;;2.17;;
6336;SDS011;3201;49.962;11.618;2022-10-31T09:56:01;2.93;;;2.17;;
6336;SDS011;3201;49.962;11.618;2022-10-31T09:58:28;2.70;;;2.23;;
6336;SDS011;3201;49.962;11.618;2022-10-31T10:00:56;1.90;;;1.80;;
6336;SDS011;3201;49.962;11.618;2022-10-31T10:03:34;2.10;;;1.93;;
6336;SDS011;3201;49.962;11.618;2022-10-31T10:06:06;1.70;;;1.57;;
6336;SDS011;3201;49.962;11.618;2022-10-31T10:08:50;3.50;;;1.90;;
6336;SDS011;3201;49.962;11.618;2022-10-31T10:14:24;2.23;;;1.80;;
6336;SDS011;3201;49.962;11.618;2022-10-31T10:22:16;3.83;;;1.80;;
6336;SDS011;3201;49.962;11.618;2022-10-31T10:30:11;4.10;;;2.27;;
6336;SDS011;3201;49.962;11.618;2022-10-31T10:35:33;1.83;;;1.73;;
6336;SDS011;3201;49.962;11.618;2022-10-31T10:38:15;2.10;;;1.90;;
6336;SDS011;3201;49.962;11.618;2022-10-31T10:40:45;2.07;;;1.87;;
6336;SDS011;3201;49.962;11.618;2022-10-31T10:43:20;2.03;;;1.80;;
6336;SDS011;3201;49.962;11.618;2022-10-31T10:45:53;2.47;;;2.10;;
6336;SDS011;3201;49.962;11.618;2022-10-31T10:51:20;2.53;;;1.90;;
6336;SDS011;3201;49.962;11.618;2022-10-31T10:53:53;2.20;;;2.00;;
6336;SDS011;3201;49.962;11.618;2022-10-31T10:56:30;2.37;;;2.17;;
6336;SDS011;3201;49.962;11.618;2022-10-31T10:59:19;2.00;;;1.80;;
6336;SDS011;3201;49.962;11.618;2022-10-31T11:01:47;4.20;;;1.60;;
6336;SDS011;3201;49.962;11.618;2022-10-31T11:04:21;3.83;;;1.70;;
6336;SDS011;3201;49.962;11.618;2022-10-31T11:06:59;1.70;;;1.60;;
6336;SDS011;3201;49.962;11.618;2022-10-31T11:09:26;2.33;;;1.83;;
6336;SDS011;3201;49.962;11.618;2022-10-31T11:11:52;3.20;;;2.37;;
6336;SDS011;3201;49.962;11.618;2022-10-31T11:14:18;2.40;;;2.10;;
6336;SDS011;3201;49.962;11.618;2022-10-31T11:16:45;2.47;;;2.27;;
6336;SDS011;3201;49.962;11.618;2022-10-31T11:21:42;1.90;;;1.43;;
6336;SDS011;3201;49.962;11.618;2022-10-31T11:26:42;1.87;;;1.77;;
6336;SDS011;3201;49.962;11.618;2022-10-31T11:29:13;5.50;;;2.03;;
6336;SDS011;3201;49.962;11.618;2022-10-31T11:31:47;2.67;;;2.47;;
6336;SDS011;3201;49.962;11.618;2022-10-31T11:37:08;3.57;;;2.10;;
6336;SDS011;3201;49.962;11.618;2022-10-31T11:39:40;2.17;;;1.97;;
6336;SDS011;3201;49.962;11.618;2022-10-31T11:42:06;2.10;;;1.90;;
6336;SDS011;3201;49.962;11.618;2022-10-31T11:44:32;2.70;;;2.50;;
6336;SDS011;3201;49.962;11.618;2022-10-31T11:46:59;2.50;;;2.00;;
6336;SDS011;3201;49.962;11.618;2022-10-31T11:49:42;2.40;;;2.20;;
6336;SDS011;3201;49.962;11.618;2022-10-31T11:52:13;1.70;;;1.50;;
6336;SDS011;3201;49.962;11.618;2022-10-31T11:54:49;2.37;;;2.07;;
6336;SDS011;3201;49.962;11.618;2022-10-31T11:57:23;3.70;;;1.73;;
6336;SDS011;3201;49.962;11.618;2022-10-31T11:59:52;3.27;;;1.50;;
6336;SDS011;3201;49.962;11.618;2022-10-31T12:02:19;3.43;;;2.07;;
6336;SDS011;3201;49.962;11.618;2022-10-31T12:04:48;2.53;;;1.90;;
6336;SDS011;3201;49.962;11.618;2022-10-31T12:07:18;4.23;;;2.70;;
6336;SDS011;3201;49.962;11.618;2022-10-31T12:09:44;4.47;;;2.20;;
6336;SDS011;3201;49.962;11.618;2022-10-31T12:17:18;3.10;;;2.70;;
6336;SDS011;3201;49.962;11.618;2022-10-31T12:20:10;2.87;;;2.47;;
6336;SDS011;3201;49.962;11.618;2022-10-31T12:25:28;3.27;;;2.57;;
6336;SDS011;3201;49.962;11.618;2022-10-31T12:28:07;2.50;;;2.20;;
6336;SDS011;3201;49.962;11.618;2022-10-31T12:35:37;3.77;;;1.97;;
6336;SDS011;3201;49.962;11.618;2022-10-31T12:39:14;4.00;;;2.20;;
6336;SDS011;3201;49.962;11.618;2022-10-31T12:42:10;5.90;;;2.40;;
6336;SDS011;3201;49.962;11.618;2022-10-31T12:44:53;2.67;;;2.10;;
6336;SDS011;3201;49.962;11.618;2022-10-31T12:59:29;6.23;;;3.53;;
6336;SDS011;3201;49.962;11.618;2022-10-31T13:01:34;4.20;;;2.50;;
6336;SDS011;3201;49.962;11.618;2022-10-31T13:04:12;4.70;;;3.70;;
6336;SDS011;3201;49.962;11.618;2022-10-31T13:06:44;4.83;;;3.17;;
6336;SDS011;3201;49.962;11.618;2022-10-31T13:09:15;6.40;;;3.10;;
6336;SDS011;3201;49.962;11.618;2022-10-31T13:11:44;5.33;;;3.80;;
6336;SDS011;3201;49.962;11.618;2022-10-31T13:14:19;6.97;;;3.80;;
6336;SDS011;3201;49.962;11.618;2022-10-31T13:16:50;7.40;;;4.00;;
6336;SDS011;3201;49.962;11.618;2022-10-31T13:19:25;8.00;;;3.63;;
6336;SDS011;3201;49.962;11.618;2022-10-31T13:24:34;4.13;;;2.80;;
6336;SDS011;3201;49.962;11.618;2022-10-31T13:27:22;10.60;;;4.30;;
6336;SDS011;3201;49.962;11.618;2022-10-31T13:29:58;6.23;;;3.90;;
6336;SDS011;3201;49.962;11.618;2022-10-31T13:32:28;13.10;;;4.50;;
6336;SDS011;3201;49.962;11.618;2022-10-31T13:35:01;6.80;;;3.93;;
6336;SDS011;3201;49.962;11.618;2022-10-31T13:37:44;5.37;;;3.67;;
6336;SDS011;3201;49.962;11.618;2022-10-31T13:43:07;6.30;;;3.93;;
6336;SDS011;3201;49.962;11.618;2022-10-31T13:45:46;9.43;;;4.47;;
6336;SDS011;3201;49.962;11.618;2022-10-31T13:50:42;7.77;;;3.70;;
6336;SDS011;3201;49.962;11.618;2022-10-31T13:53:12;8.97;;;4.23;;
6336;SDS011;3201;49.962;11.618;2022-10-31T13:55:41;9.17;;;4.20;;
6336;SDS011;3201;49.962;11.618;2022-10-31T13:58:40;12.70;;;4.27;;
6336;SDS011;3201;49.962;11.618;2022-10-31T14:03:30;8.97;;;4.43;;
6336;SDS011;3201;49.962;11.618;2022-10-31T14:05:58;6.17;;;3.47;;
6336;SDS011;3201;49.962;11.618;2022-10-31T14:08:24;11.20;;;3.83;;
6336;SDS011;3201;49.962;11.618;2022-10-31T14:10:50;7.60;;;3.90;;
6336;SDS011;3201;49.962;11.618;2022-10-31T14:15:57;6.20;;;3.90;;
6336;SDS011;3201;49.962;11.618;2022-10-31T14:20:56;7.03;;;3.70;;
6336;SDS011;3201;49.962;11.618;2022-10-31T14:23:38;10.53;;;3.30;;
6336;SDS011;3201;49.962;11.618;2022-10-31T14:28:51;10.73;;;4.60;;
6336;SDS011;3201;49.962;11.618;2022-10-31T14:31:27;7.63;;;4.27;;
6336;SDS011;3201;49.962;11.618;2022-10-31T14:33:53;6.77;;;4.00;;
6336;SDS011;3201;49.962;11.618;2022-10-31T14:36:30;7.20;;;3.43;;
6336;SDS011;3201;49.962;11.618;2022-10-31T14:39:19;8.20;;;3.90;;
6336;SDS011;3201;49.962;11.618;2022-10-31T14:50:22;6.77;;;4.00;;
6336;SDS011;3201;49.962;11.618;2022-10-31T14:52:53;12.73;;;4.50;;
6336;SDS011;3201;49.962;11.618;2022-10-31T14:55:21;7.90;;;4.50;;
6336;SDS011;3201;49.962;11.618;2022-10-31T14:57:49;7.70;;;3.87;;
6336;SDS011;3201;49.962;11.618;2022-10-31T15:00:19;9.30;;;4.37;;
6336;SDS011;3201;49.962;11.618;2022-10-31T15:02:50;7.90;;;4.27;;
6336;SDS011;3201;49.962;11.618;2022-10-31T15:05:22;9.07;;;4.77;;
6336;SDS011;3201;49.962;11.618;2022-10-31T15:07:55;8.30;;;4.50;;
6336;SDS011;3201;49.962;11.618;2022-10-31T15:12:51;8.70;;;4.23;;
6336;SDS011;3201;49.962;11.618;2022-10-31T15:15:18;8.73;;;4.30;;
6336;SDS011;3201;49.962;11.618;2022-10-31T15:17:48;6.90;;;3.90;;
6336;SDS011;3201;49.962;11.618;2022-10-31T15:20:17;11.33;;;4.80;;
6336;SDS011;3201;49.962;11.618;2022-10-31T15:22:44;7.50;;;4.90;;
6336;SDS011;3201;49.962;11.618;2022-10-31T15:25:14;10.63;;;4.60;;
6336;SDS011;3201;49.962;11.618;2022-10-31T15:27:43;12.57;;;4.17;;
6336;SDS011;3201;49.962;11.618;2022-10-31T15:30:25;8.73;;;4.00;;
6336;SDS011;3201;49.962;11.618;2022-10-31T15:32:52;9.13;;;4.70;;
6336;SDS011;3201;49.962;11.618;2022-10-31T15:35:20;14.07;;;4.70;;
6336;SDS011;3201;49.962;11.618;2022-10-31T15:37:47;8.80;;;4.13;;
6336;SDS011;3201;49.962;11.618;2022-10-31T15:40:14;6.97;;;4.30;;
6336;SDS011;3201;49.962;11.618;2022-10-31T15:42:41;9.67;;;4.90;;
6336;SDS011;3201;49.962;11.618;2022-10-31T15:47:38;10.23;;;4.40;;
6336;SDS011;3201;49.962;11.618;2022-10-31T15:50:05;12.10;;;3.90;;
6336;SDS011;3201;49.962;11.618;2022-10-31T15:52:44;7.57;;;3.80;;
6336;SDS011;3201;49.962;11.618;2022-10-31T15:55:15;7.30;;;4.30;;
6336;SDS011;3201;49.962;11.618;2022-10-31T15:57:45;9.27;;;3.50;;
6336;SDS011;3201;49.962;11.618;2022-10-31T16:00:44;6.27;;;3.67;;
6336;SDS011;3201;49.962;11.618;2022-10-31T16:03:02;8.70;;;4.10;;
6336;SDS011;3201;49.962;11.618;2022-10-31T16:10:56;7.17;;;3.70;;
6336;SDS011;3201;49.962;11.618;2022-10-31T16:13:28;9.00;;;4.67;;
6336;SDS011;3201;49.962;11.618;2022-10-31T16:15:56;11.50;;;4.87;;
6336;SDS011;3201;49.962;11.618;2022-10-31T16:18:24;10.70;;;4.30;;
6336;SDS011;3201;49.962;11.618;2022-10-31T16:20:51;8.40;;;3.97;;
6336;SDS011;3201;49.962;11.618;2022-10-31T16:23:20;11.90;;;5.00;;
6336;SDS011;3201;49.962;11.618;2022-10-31T16:25:47;7.87;;;3.70;;
6336;SDS011;3201;49.962;11.618;2022-10-31T16:28:14;5.90;;;3.43;;
6336;SDS011;3201;49.962;11.618;2022-10-31T16:30:46;9.33;;;3.57;;
6336;SDS011;3201;49.962;11.618;2022-10-31T16:33:43;6.90;;;4.30;;
6336;SDS011;3201;49.962;11.618;2022-10-31T16:36:01;6.40;;;3.37;;
6336;SDS011;3201;49.962;11.618;2022-10-31T16:38:46;10.33;;;3.93;;
6336;SDS011;3201;49.962;11.618;2022-10-31T16:41:12;7.03;;;3.37;;
6336;SDS011;3201;49.962;11.618;2022-10-31T16:43:37;6.13;;;3.60;;
6336;SDS011;3201;49.962;11.618;2022-10-31T16:46:02;5.23;;;3.40;;
6336;SDS011;3201;49.962;11.618;2022-10-31T16:48:28;6.87;;;3.70;;
6336;SDS011;3201;49.962;11.618;2022-10-31T16:50:54;7.67;;;3.80;;
6336;SDS011;3201;49.962;11.618;2022-10-31T16:53:19;5.00;;;3.40;;
6336;SDS011;3201;49.962;11.618;2022-10-31T16:55:45;10.90;;;2.90;;
6336;SDS011;3201;49.962;11.618;2022-10-31T16:58:28;10.93;;;4.40;;
6336;SDS011;3201;49.962;11.618;2022-10-31T17:00:55;4.03;;;3.00;;
6336;SDS011;3201;49.962;11.618;2022-10-31T17:03:21;8.67;;;3.20;;
6336;SDS011;3201;49.962;11.618;2022-10-31T17:05:47;5.97;;;3.23;;
6336;SDS011;3201;49.962;11.618;2022-10-31T17:08:13;6.30;;;3.27;;
6336;SDS011;3201;49.962;11.618;2022-10-31T17:10:39;12.90;;;3.80;;
6336;SDS011;3201;49.962;11.618;2022-10-31T17:13:05;6.30;;;3.40;;
6336;SDS011;3201;49.962;11.618;2022-10-31T17:15:34;6.50;;;3.70;;
6336;SDS011;3201;49.962;11.618;2022-10-31T17:18:03;5.53;;;3.47;;
6336;SDS011;3201;49.962;11.618;2022-10-31T17:20:29;8.00;;;3.80;;
6336;SDS011;3201;49.962;11.618;2022-10-31T17:22:56;4.93;;;3.70;;